Time;durP1;ratioP1;P1;durP2;ratioP2;P2;SDS_P1;SDS_P2;PMS_P1;PMS_P2;Temp;Humidity;BMP_temperature;BMP_pressure;BME280_temperature;BME280_humidity;BME280_pressure;Samples;Min_cycle;Max_cycle;Signal;HPM_P1;HPM_P2
2021/01/23 00:00:09;;;;;;;87.25;42.55;;;0.10;92.80;;;;;;4937699;29;20079;-84
2021/01/23 00:02:36;;;;;;;76.53;38.85;;;0.00;92.80;;;;;;4937897;29;20066;-83
2021/01/23 00:05:02;;;;;;;79.30;41.15;;;0.00;92.80;;;;;;4955252;29;20031;-83
2021/01/23 00:07:28;;;;;;;81.65;43.08;;;-0.10;92.80;;;;;;4922272;29;20038;-84
2021/01/23 00:09:53;;;;;;;65.57;35.60;;;-0.10;92.80;;;;;;4937538;29;20385;-83
2021/01/23 00:12:19;;;;;;;73.20;36.58;;;0.00;92.90;;;;;;4937754;29;20113;-84
2021/01/23 00:14:45;;;;;;;61.05;32.60;;;0.00;93.20;;;;;;4937722;29;20031;-83
2021/01/23 00:17:10;;;;;;;70.18;38.00;;;0.10;93.30;;;;;;4937740;29;20019;-84
2021/01/23 00:19:36;;;;;;;68.65;36.53;;;0.20;93.70;;;;;;4937535;29;20035;-84
2021/01/23 00:22:02;;;;;;;57.13;32.72;;;0.30;93.50;;;;;;4955255;29;20497;-84
2021/01/23 00:24:28;;;;;;;72.18;39.47;;;0.40;93.40;;;;;;4937984;29;20086;-84
2021/01/23 00:26:53;;;;;;;67.60;37.40;;;0.50;93.90;;;;;;4937721;29;20035;-84
2021/01/23 00:29:19;;;;;;;68.53;40.38;;;0.70;94.00;;;;;;4937559;29;20035;-83
2021/01/23 00:31:45;;;;;;;74.10;39.42;;;0.70;94.20;;;;;;4954892;29;20031;-84
2021/01/23 00:34:11;;;;;;;62.20;33.97;;;0.80;94.20;;;;;;4937336;29;20051;-84
2021/01/23 00:36:37;;;;;;;65.10;34.78;;;0.90;94.20;;;;;;4954779;29;20377;-84
2021/01/23 00:39:05;;;;;;;54.20;28.98;;;1.00;94.10;;;;;;4937448;29;20027;-84
2021/01/23 00:41:31;;;;;;;61.15;32.83;;;1.10;93.80;;;;;;4954962;29;20042;-84
2021/01/23 00:43:57;;;;;;;60.20;32.08;;;1.20;94.00;;;;;;4957836;28;20055;-84
2021/01/23 00:46:23;;;;;;;55.13;28.92;;;1.30;94.20;;;;;;4941183;29;20063;-84
2021/01/23 00:48:49;;;;;;;58.47;32.90;;;1.30;94.20;;;;;;4958695;29;20031;-84
2021/01/23 00:51:15;;;;;;;51.67;29.58;;;1.40;94.60;;;;;;4958187;29;20038;-84
2021/01/23 00:53:41;;;;;;;51.53;28.70;;;1.50;95.00;;;;;;4940730;29;20042;-83
2021/01/23 00:56:07;;;;;;;56.03;31.17;;;1.60;95.10;;;;;;4941244;29;20046;-84
2021/01/23 00:58:33;;;;;;;50.85;27.20;;;1.70;95.20;;;;;;4958141;29;20491;-84
2021/01/23 01:00:59;;;;;;;52.40;29.05;;;1.70;94.90;;;;;;4940582;29;20030;-84
2021/01/23 01:03:24;;;;;;;61.20;32.15;;;1.80;94.80;;;;;;4957803;29;20129;-84
2021/01/23 01:05:50;;;;;;;61.47;31.83;;;1.80;94.90;;;;;;4941026;29;20031;-84
2021/01/23 01:08:16;;;;;;;60.45;33.30;;;1.90;94.90;;;;;;4940553;29;20035;-84
2021/01/23 01:10:45;;;;;;;58.60;30.42;;;1.80;94.90;;;;;;4940607;29;20047;-84
2021/01/23 01:13:15;;;;;;;61.88;30.95;;;1.90;94.90;;;;;;4940571;29;20028;-84
2021/01/23 01:15:41;;;;;;;52.25;29.92;;;1.90;94.70;;;;;;4940939;29;20024;-84
2021/01/23 01:18:10;;;;;;;53.95;27.80;;;1.90;94.70;;;;;;4940230;29;20130;-84
2021/01/23 01:20:36;;;;;;;50.00;25.33;;;1.90;94.80;;;;;;4940058;29;20033;-84
2021/01/23 01:23:01;;;;;;;53.72;26.95;;;2.00;94.60;;;;;;4940012;29;20114;-84
2021/01/23 01:25:27;;;;;;;52.45;26.85;;;2.00;94.40;;;;;;4957347;29;20483;-84
2021/01/23 01:27:54;;;;;;;56.70;28.25;;;2.00;94.40;;;;;;4949115;28;20027;-84
2021/01/23 01:30:22;;;;;;;50.15;24.83;;;2.00;94.30;;;;;;4959681;28;20027;-84
2021/01/23 01:32:48;;;;;;;50.97;26.40;;;2.10;94.30;;;;;;4976828;28;20038;-84
2021/01/23 01:35:14;;;;;;;56.50;27.88;;;2.10;94.40;;;;;;4976839;28;20043;-84
2021/01/23 01:37:40;;;;;;;55.30;28.75;;;2.10;94.20;;;;;;4976805;28;20027;-84
2021/01/23 01:40:07;;;;;;;48.80;26.52;;;2.10;94.50;;;;;;4959490;28;20034;-84
2021/01/23 01:42:33;;;;;;;51.33;27.63;;;2.10;94.40;;;;;;4959802;28;20109;-84
2021/01/23 01:44:59;;;;;;;54.50;31.05;;;2.20;94.20;;;;;;4959447;28;20030;-84
2021/01/23 01:47:24;;;;;;;53.55;27.48;;;2.20;94.30;;;;;;4959293;28;20085;-84
2021/01/23 01:49:51;;;;;;;50.60;27.02;;;2.20;94.30;;;;;;4943524;28;20038;-84
2021/01/23 01:52:17;;;;;;;52.50;28.60;;;2.20;94.20;;;;;;4977279;28;20477;-84
2021/01/23 01:54:44;;;;;;;52.60;28.58;;;2.30;94.20;;;;;;4958676;28;20113;-84
2021/01/23 01:57:10;;;;;;;60.72;31.27;;;2.30;94.20;;;;;;4959223;28;20496;-84
2021/01/23 01:59:35;;;;;;;57.80;28.95;;;2.20;94.20;;;;;;4959354;28;20035;-84
2021/01/23 02:02:21;;;;;;;54.47;28.77;;;2.30;94.20;;;;;;4958585;28;20057;-84
2021/01/23 02:04:57;;;;;;;46.92;26.13;;;2.30;94.00;;;;;;4958946;28;20039;-84
2021/01/23 02:07:29;;;;;;;49.13;27.63;;;2.30;94.00;;;;;;4958800;28;20042;-84
2021/01/23 02:10:11;;;;;;;50.33;26.52;;;2.30;94.20;;;;;;4976066;28;20034;-83
2021/01/23 02:12:58;;;;;;;50.50;26.10;;;2.30;94.10;;;;;;4959191;28;20061;-84
2021/01/23 02:15:28;;;;;;;49.47;25.45;;;2.30;94.10;;;;;;4976592;28;20026;-84
2021/01/23 02:18:03;;;;;;;58.92;28.80;;;2.40;94.10;;;;;;4975799;28;20117;-84
2021/01/23 02:20:57;;;;;;;53.90;28.05;;;2.30;94.30;;;;;;4958813;28;20030;-84
2021/01/23 02:23:29;;;;;;;46.58;23.55;;;2.30;94.30;;;;;;4976021;28;20027;-84
2021/01/23 02:26:10;;;;;;;58.35;29.02;;;2.30;94.10;;;;;;4942804;28;20086;-84
2021/01/23 02:29:01;;;;;;;56.38;28.75;;;2.40;94.20;;;;;;4958685;28;20092;-84
2021/01/23 02:31:29;;;;;;;72.38;34.42;;;2.40;94.30;;;;;;4975467;28;20034;-83
2021/01/23 02:34:00;;;;;;;61.28;28.92;;;2.30;94.60;;;;;;4958438;28;20019;-84
2021/01/23 02:36:28;;;;;;;56.03;28.95;;;2.30;94.60;;;;;;4975641;28;20030;-84
2021/01/23 02:38:55;;;;;;;64.95;30.73;;;2.40;94.50;;;;;;4974335;28;20424;-84
2021/01/23 02:41:23;;;;;;;60.97;28.58;;;2.40;94.50;;;;;;4938960;29;20027;-84
2021/01/23 02:43:49;;;;;;;70.45;32.30;;;2.40;94.60;;;;;;4939073;29;20031;-84
2021/01/23 02:46:17;;;;;;;67.30;32.75;;;2.40;94.60;;;;;;4955965;29;20032;-84
2021/01/23 02:48:43;;;;;;;69.07;32.15;;;2.40;94.60;;;;;;4956149;29;20030;-84
2021/01/23 02:51:47;;;;;;;69.95;34.03;;;2.40;94.60;;;;;;4938944;29;20410;-84
2021/01/23 02:54:21;;;;;;;73.00;34.75;;;2.40;94.60;;;;;;4910183;29;20031;-84
2021/01/23 02:56:48;;;;;;;74.97;34.15;;;2.40;94.40;;;;;;4938505;29;20028;-84
2021/01/23 02:59:17;;;;;;;65.90;31.10;;;2.40;94.50;;;;;;4938678;29;20038;-84
2021/01/23 03:01:44;;;;;;;72.32;34.30;;;2.40;94.50;;;;;;4938627;29;20043;-84
2021/01/23 03:04:12;;;;;;;59.55;29.10;;;2.40;94.60;;;;;;4956136;29;20031;-84
2021/01/23 03:06:38;;;;;;;87.03;36.85;;;2.50;94.50;;;;;;4937663;29;20118;-84
2021/01/23 03:09:21;;;;;;;70.72;34.00;;;2.40;94.70;;;;;;4923212;29;20053;-84
2021/01/23 03:11:47;;;;;;;71.25;31.38;;;2.40;94.60;;;;;;4956058;29;20075;-84
2021/01/23 03:14:13;;;;;;;72.18;31.73;;;2.40;94.60;;;;;;4938306;29;20597;-84
2021/01/23 03:16:52;;;;;;;69.20;33.10;;;2.40;94.60;;;;;;4938610;29;20122;-84
2021/01/23 03:19:18;;;;;;;69.20;32.35;;;2.50;94.60;;;;;;4938309;29;20552;-84
2021/01/23 03:21:46;;;;;;;67.45;31.08;;;2.40;94.70;;;;;;4955860;29;20038;-84
2021/01/23 03:24:13;;;;;;;85.32;36.63;;;2.50;94.60;;;;;;4955902;29;20078;-84
2021/01/23 03:26:39;;;;;;;82.05;33.97;;;2.50;94.40;;;;;;4938122;29;20055;-83
2021/01/23 03:29:04;;;;;;;76.28;32.30;;;2.50;94.60;;;;;;4922615;29;20556;-84
2021/01/23 03:31:30;;;;;;;74.28;33.13;;;2.40;94.60;;;;;;4955655;29;20110;-84
2021/01/23 03:33:57;;;;;;;80.10;33.10;;;2.50;94.60;;;;;;4955093;29;20058;-84
2021/01/23 03:36:25;;;;;;;80.65;35.03;;;2.50;94.60;;;;;;4938500;29;20027;-84
2021/01/23 03:38:52;;;;;;;95.65;38.53;;;2.40;94.70;;;;;;4955653;29;20034;-84
2021/01/23 03:41:19;;;;;;;85.25;36.92;;;2.40;94.70;;;;;;4938288;29;20121;-84
2021/01/23 03:43:44;;;;;;;84.97;34.22;;;2.50;94.70;;;;;;4955504;29;20031;-84
2021/01/23 03:46:10;;;;;;;79.55;32.38;;;2.50;94.60;;;;;;4955208;29;20134;-84
2021/01/23 03:48:36;;;;;;;107.55;38.40;;;2.50;94.70;;;;;;4955104;29;20042;-84
2021/01/23 03:51:03;;;;;;;97.03;36.17;;;2.50;94.60;;;;;;4922451;29;20031;-84
2021/01/23 03:53:28;;;;;;;74.85;28.88;;;2.50;94.60;;;;;;4955225;29;20082;-84
2021/01/23 03:55:54;;;;;;;93.90;34.65;;;2.50;94.70;;;;;;4938432;29;20031;-84
2021/01/23 03:58:20;;;;;;;108.05;39.70;;;2.50;94.70;;;;;;4922055;29;20462;-84
2021/01/23 04:00:46;;;;;;;67.45;28.98;;;2.40;95.00;;;;;;4938140;29;20042;-84
2021/01/23 04:03:12;;;;;;;71.47;29.85;;;2.50;95.10;;;;;;4937864;29;20062;-84
2021/01/23 04:05:37;;;;;;;72.07;29.52;;;2.50;94.90;;;;;;4938016;29;20030;-84
2021/01/23 04:08:04;;;;;;;84.53;35.10;;;2.60;94.80;;;;;;4954905;29;20027;-84
2021/01/23 04:10:30;;;;;;;81.32;32.90;;;2.50;94.90;;;;;;4953625;29;20063;-84
2021/01/23 04:12:56;;;;;;;113.10;38.17;;;2.60;95.00;;;;;;4922405;29;20059;-84
2021/01/23 04:15:23;;;;;;;107.78;36.92;;;2.60;94.90;;;;;;4937964;29;20034;-84
2021/01/23 04:17:49;;;;;;;111.03;39.08;;;2.50;94.90;;;;;;4956468;28;20377;-84
2021/01/23 04:20:15;;;;;;;89.80;32.72;;;2.60;94.90;;;;;;4941648;29;20024;-84
2021/01/23 04:22:41;;;;;;;93.70;34.92;;;2.50;94.90;;;;;;4958798;29;20422;-84
2021/01/23 04:25:07;;;;;;;113.18;38.17;;;2.50;94.90;;;;;;4941145;29;20031;-84
2021/01/23 04:27:35;;;;;;;140.13;43.95;;;2.50;95.10;;;;;;4958427;29;20035;-84
2021/01/23 04:30:01;;;;;;;144.48;47.05;;;2.50;95.20;;;;;;4941474;29;20444;-84
2021/01/23 04:32:27;;;;;;;120.47;41.53;;;2.50;95.20;;;;;;4958558;29;20040;-84
2021/01/23 04:34:53;;;;;;;134.32;43.20;;;2.50;95.20;;;;;;4958667;29;20027;-84
2021/01/23 04:37:19;;;;;;;112.20;40.63;;;2.50;95.10;;;;;;4958076;29;20385;-84
2021/01/23 04:39:45;;;;;;;120.80;43.85;;;2.50;95.20;;;;;;4925687;29;20066;-84
2021/01/23 04:42:11;;;;;;;134.80;47.40;;;2.50;95.10;;;;;;4941129;29;20367;-82
2021/01/23 04:44:37;;;;;;;119.70;49.08;;;2.50;95.20;;;;;;4941460;29;20031;-83
2021/01/23 04:47:04;;;;;;;117.65;46.33;;;2.50;95.40;;;;;;4940837;29;20126;-84
2021/01/23 04:49:34;;;;;;;154.45;51.95;;;2.50;95.40;;;;;;4958321;29;20058;-84
2021/01/23 04:52:06;;;;;;;127.88;45.03;;;2.60;95.40;;;;;;4956821;29;20035;-83
2021/01/23 04:54:33;;;;;;;91.32;36.28;;;2.60;95.40;;;;;;4941383;29;20406;-86
2021/01/23 04:57:00;;;;;;;114.95;41.22;;;2.60;95.30;;;;;;4940630;29;20023;-87
2021/01/23 04:59:26;;;;;;;135.38;49.70;;;2.60;95.30;;;;;;4940872;29;20469;-86
2021/01/23 05:02:18;;;;;;;115.70;42.53;;;2.60;95.30;;;;;;4940663;29;20195;-86
2021/01/23 05:04:46;;;;;;;118.05;44.58;;;2.60;95.50;;;;;;4938024;29;20035;-86
2021/01/23 05:07:26;;;;;;;106.78;39.03;;;2.50;95.50;;;;;;4938299;29;20090;-86
2021/01/23 05:09:53;;;;;;;101.90;37.40;;;2.60;95.40;;;;;;4939214;29;20474;-86
2021/01/23 05:12:42;;;;;;;95.68;39.65;;;2.60;95.40;;;;;;4906174;29;20028;-86
2021/01/23 05:15:13;;;;;;;94.75;40.67;;;2.60;95.50;;;;;;4922024;29;20541;-86
2021/01/23 05:17:53;;;;;;;96.38;40.22;;;2.70;95.50;;;;;;4921557;29;20024;-86
2021/01/23 05:20:39;;;;;;;110.13;43.92;;;2.70;95.40;;;;;;4938850;29;20074;-85
2021/01/23 05:23:22;;;;;;;116.85;42.40;;;2.80;95.40;;;;;;4938775;29;20031;-86
2021/01/23 05:25:55;;;;;;;97.28;37.75;;;2.70;95.30;;;;;;4921732;29;20039;-86
2021/01/23 05:28:33;;;;;;;92.20;40.38;;;2.80;95.20;;;;;;4922538;29;20035;-85
2021/01/23 05:31:01;;;;;;;105.10;45.65;;;2.80;95.10;;;;;;4921241;29;20533;-85
2021/01/23 05:33:31;;;;;;;113.75;48.45;;;2.80;95.10;;;;;;4906074;29;20032;-86
2021/01/23 05:36:08;;;;;;;94.40;42.80;;;2.80;95.00;;;;;;4921994;29;20030;-86
2021/01/23 05:38:44;;;;;;;92.47;42.03;;;2.80;95.00;;;;;;4938683;29;20031;-86
2021/01/23 05:41:15;;;;;;;92.68;43.75;;;2.90;95.10;;;;;;4905968;29;20024;-86
2021/01/23 05:43:48;;;;;;;72.97;34.85;;;2.90;95.10;;;;;;4921188;29;20051;-86
2021/01/23 05:46:31;;;;;;;87.50;39.15;;;2.90;95.10;;;;;;4934662;29;20027;-86
2021/01/23 05:48:58;;;;;;;93.60;40.95;;;2.90;95.00;;;;;;4940154;29;20031;-86
2021/01/23 05:51:25;;;;;;;86.88;38.10;;;2.90;95.10;;;;;;4937266;29;20115;-86
2021/01/23 05:53:51;;;;;;;94.28;40.55;;;2.90;95.00;;;;;;4921179;29;20032;-86
2021/01/23 05:56:17;;;;;;;80.95;35.30;;;2.90;95.00;;;;;;4937782;29;20093;-86
2021/01/23 05:58:44;;;;;;;89.50;39.90;;;3.00;95.00;;;;;;4936892;29;20035;-86
2021/01/23 06:01:13;;;;;;;87.90;38.50;;;3.00;95.00;;;;;;4938268;29;20028;-87
2021/01/23 06:03:41;;;;;;;75.05;37.53;;;3.10;94.90;;;;;;4937985;29;20047;-86
2021/01/23 06:06:07;;;;;;;87.80;42.08;;;3.10;94.70;;;;;;4936489;29;20031;-86
2021/01/23 06:08:42;;;;;;;105.68;44.38;;;3.10;94.70;;;;;;4937973;29;20470;-86
2021/01/23 06:11:20;;;;;;;84.28;37.95;;;3.10;94.90;;;;;;4936537;29;20113;-87
2021/01/23 06:13:55;;;;;;;78.68;37.10;;;3.10;94.70;;;;;;4940001;29;20536;-87
2021/01/23 06:16:34;;;;;;;85.57;38.17;;;3.20;94.80;;;;;;4940712;29;20058;-87
2021/01/23 06:19:06;;;;;;;76.70;32.85;;;3.20;94.80;;;;;;4939867;29;20035;-87
2021/01/23 06:21:48;;;;;;;69.80;30.67;;;3.20;94.70;;;;;;4956998;29;20038;-87
2021/01/23 06:24:35;;;;;;;68.90;29.73;;;3.30;94.60;;;;;;4936906;29;20065;-87
2021/01/23 06:27:01;;;;;;;86.82;37.85;;;3.30;94.50;;;;;;4943563;29;20043;-87
2021/01/23 06:29:37;;;;;;;80.28;34.80;;;3.30;94.60;;;;;;4923883;29;20094;-87
2021/01/23 06:32:12;;;;;;;98.72;40.58;;;3.30;94.50;;;;;;4956682;29;20465;-87
2021/01/23 06:35:13;;;;;;;74.07;33.50;;;3.30;94.40;;;;;;4939706;29;20041;-87
2021/01/23 06:37:39;;;;;;;76.07;31.73;;;3.30;94.30;;;;;;4863586;29;20376;-87
2021/01/23 06:40:16;;;;;;;73.65;34.13;;;3.30;94.20;;;;;;4940763;28;20039;-87
2021/01/23 06:42:47;;;;;;;111.85;43.33;;;3.40;94.30;;;;;;4939377;29;20023;-87
2021/01/23 06:45:14;;;;;;;82.60;33.42;;;3.30;94.50;;;;;;4939378;29;20082;-87
2021/01/23 06:47:41;;;;;;;78.22;33.08;;;3.30;94.40;;;;;;4939434;29;20035;-87
2021/01/23 06:50:08;;;;;;;80.88;32.35;;;3.40;94.40;;;;;;4956441;29;20035;-87
2021/01/23 06:52:54;;;;;;;86.28;35.90;;;3.40;94.30;;;;;;4939182;29;20034;-87
2021/01/23 06:55:46;;;;;;;94.03;37.70;;;3.40;94.20;;;;;;4939095;29;20429;-87
2021/01/23 06:58:17;;;;;;;101.65;38.78;;;3.40;94.30;;;;;;4939068;29;20034;-87
2021/01/23 07:00:43;;;;;;;;;;;3.40;94.30;;;;;;4939378;29;20028;-87
2021/01/23 07:03:13;;;;;;;86.95;37.05;;;3.40;94.30;;;;;;4938906;29;20282;-87
2021/01/23 07:05:56;;;;;;;101.35;40.72;;;3.40;94.40;;;;;;4939217;29;20023;-88
2021/01/23 07:08:38;;;;;;;100.43;38.70;;;3.30;94.60;;;;;;4956328;29;20062;-87
2021/01/23 07:11:23;;;;;;;75.10;33.30;;;3.30;94.60;;;;;;4956327;29;20059;-88
2021/01/23 07:14:18;;;;;;;74.38;32.70;;;3.40;94.50;;;;;;4938864;29;20118;-87
2021/01/23 07:16:53;;;;;;;72.22;32.38;;;3.40;94.30;;;;;;4923017;29;20035;-87
2021/01/23 07:19:25;;;;;;;111.20;40.50;;;3.50;94.20;;;;;;4938934;29;20118;-87
2021/01/23 07:21:52;;;;;;;81.93;35.60;;;3.40;94.20;;;;;;4938846;29;20031;-87
2021/01/23 07:24:18;;;;;;;91.50;39.15;;;3.40;94.30;;;;;;4938884;29;20027;-88
2021/01/23 07:26:45;;;;;;;93.03;38.65;;;3.40;94.20;;;;;;4938541;29;20034;-87
2021/01/23 07:29:11;;;;;;;105.72;40.83;;;3.50;94.10;;;;;;4955796;29;20115;-87
2021/01/23 07:32:00;;;;;;;85.90;33.13;;;3.50;94.00;;;;;;4938735;29;20031;-87
2021/01/23 07:34:26;;;;;;;77.88;32.83;;;3.50;93.90;;;;;;4938701;29;20031;-88
2021/01/23 07:36:52;;;;;;;94.82;36.78;;;3.50;93.90;;;;;;4955893;29;20074;-87
2021/01/23 07:39:19;;;;;;;59.42;27.85;;;3.50;93.80;;;;;;4938642;29;20438;-87
2021/01/23 07:41:48;;;;;;;73.43;30.27;;;3.60;93.80;;;;;;4938492;29;20050;-87
2021/01/23 07:44:15;;;;;;;69.93;31.05;;;3.60;93.60;;;;;;4955748;29;20082;-87
2021/01/23 07:46:43;;;;;;;89.68;43.53;;;3.70;93.60;;;;;;4955615;29;20436;-87
2021/01/23 07:49:20;;;;;;;73.35;32.45;;;3.50;93.50;;;;;;4938445;29;20541;-87
2021/01/23 07:51:46;;;;;;;77.50;35.30;;;3.60;93.50;;;;;;4955380;28;20023;-88
2021/01/23 07:54:13;;;;;;;83.50;36.22;;;3.40;93.50;;;;;;4938475;29;20030;-87
2021/01/23 07:56:50;;;;;;;68.82;32.85;;;3.50;93.60;;;;;;4938421;29;20377;-87
2021/01/23 07:59:16;;;;;;;76.13;34.47;;;3.50;93.60;;;;;;4938308;29;20027;-87
2021/01/23 08:01:42;;;;;;;76.15;34.42;;;3.40;93.50;;;;;;4938297;29;20482;-87
2021/01/23 08:04:30;;;;;;;73.55;32.67;;;3.40;93.40;;;;;;4938446;29;20186;-87
2021/01/23 08:07:15;;;;;;;61.17;30.15;;;3.50;93.50;;;;;;4955468;29;20023;-87
2021/01/23 08:09:41;;;;;;;70.88;31.85;;;3.50;93.30;;;;;;4938107;29;20409;-87
2021/01/23 08:12:18;;;;;;;90.03;49.50;;;3.40;93.30;;;;;;4955148;29;20086;-87
2021/01/23 08:14:54;;;;;;;85.30;43.65;;;3.40;93.30;;;;;;4938394;29;20114;-88
2021/01/23 08:17:34;;;;;;;95.97;47.45;;;3.30;93.30;;;;;;4938217;29;20019;-87
2021/01/23 08:20:00;;;;;;;84.78;43.72;;;3.30;93.40;;;;;;4938270;29;20031;-88
2021/01/23 08:22:26;;;;;;;122.22;65.68;;;3.30;93.40;;;;;;4955522;29;20087;-91
2021/01/23 08:24:52;;;;;;;70.65;38.17;;;3.30;93.40;;;;;;4938343;29;20031;-89
2021/01/23 08:27:22;;;;;;;72.82;37.60;;;3.40;93.40;;;;;;4938244;29;20042;-89
2021/01/23 08:29:48;;;;;;;65.53;34.45;;;3.40;93.30;;;;;;4938103;29;20027;-87
2021/01/23 08:32:15;;;;;;;72.55;38.28;;;3.40;93.30;;;;;;4938126;29;20483;-88
2021/01/23 08:34:41;;;;;;;74.68;36.63;;;3.40;93.20;;;;;;4938376;29;20031;-89
2021/01/23 08:37:08;;;;;;;63.88;33.50;;;3.50;93.20;;;;;;4955981;29;20024;-89
2021/01/23 08:39:50;;;;;;;71.43;39.03;;;3.40;92.90;;;;;;4938448;29;20143;-89
2021/01/23 08:42:18;;;;;;;61.20;33.10;;;3.50;93.10;;;;;;4955570;29;20501;-89
2021/01/23 08:44:44;;;;;;;53.80;29.08;;;3.50;93.00;;;;;;4938462;29;20028;-89
2021/01/23 08:47:09;;;;;;;65.07;33.08;;;3.60;92.90;;;;;;4955438;29;20102;-89
2021/01/23 08:49:35;;;;;;;52.72;26.83;;;3.40;92.90;;;;;;4938479;29;20121;-87
2021/01/23 08:52:01;;;;;;;49.35;24.60;;;3.50;93.20;;;;;;4937911;29;20031;-86
2021/01/23 08:54:27;;;;;;;48.25;26.23;;;3.70;93.10;;;;;;4937977;29;20038;-86
2021/01/23 08:56:52;;;;;;;66.55;33.83;;;3.80;93.00;;;;;;4938067;29;20118;-86
2021/01/23 08:59:18;;;;;;;52.00;25.77;;;3.80;92.60;;;;;;4937815;29;20069;-86
2021/01/23 09:01:44;;;;;;;59.05;29.55;;;3.90;92.80;;;;;;4937632;29;20056;-86
2021/01/23 09:04:09;;;;;;;50.25;27.35;;;3.80;92.30;;;;;;4955514;28;20038;-86
2021/01/23 09:06:35;;;;;;;49.60;27.27;;;3.90;92.50;;;;;;4941232;29;20027;-86
2021/01/23 09:09:02;;;;;;;48.78;28.88;;;4.00;92.50;;;;;;4941116;29;20027;-86
2021/01/23 09:11:27;;;;;;;51.78;26.85;;;4.00;92.10;;;;;;4941035;29;20031;-87
2021/01/23 09:13:53;;;;;;;49.03;26.75;;;4.00;92.20;;;;;;4958654;29;20030;-86
2021/01/23 09:18:39;;;;;;;46.63;27.83;;;3.90;91.90;;;;;;5071921;28;20410;-85
2021/01/23 09:21:05;;;;;;;54.92;30.50;;;4.10;92.30;;;;;;5070030;28;20036;-85
2021/01/23 09:23:31;;;;;;;50.13;28.52;;;4.10;92.00;;;;;;5071786;28;20025;-85
2021/01/23 09:25:58;;;;;;;46.75;28.30;;;4.10;92.10;;;;;;5070225;28;20074;-85
2021/01/23 09:28:25;;;;;;;52.35;28.10;;;4.20;92.00;;;;;;5070959;28;20083;-85
2021/01/23 09:30:50;;;;;;;52.25;29.20;;;4.20;91.90;;;;;;5071106;28;20104;-86
2021/01/23 09:33:16;;;;;;;51.03;30.30;;;4.20;91.90;;;;;;5070740;28;20052;-85
2021/01/23 09:35:42;;;;;;;45.30;26.15;;;4.20;91.90;;;;;;5069457;28;20432;-85
2021/01/23 09:38:08;;;;;;;46.83;27.17;;;4.30;92.00;;;;;;5069462;28;20548;-85
2021/01/23 09:40:34;;;;;;;53.80;30.83;;;4.40;91.80;;;;;;5069373;28;20162;-85
2021/01/23 09:43:00;;;;;;;53.20;30.23;;;4.30;91.40;;;;;;5069425;28;20025;-85
2021/01/23 09:45:26;;;;;;;50.00;27.92;;;4.30;91.30;;;;;;5070930;28;20467;-85
2021/01/23 09:47:51;;;;;;;46.00;26.02;;;4.30;91.20;;;;;;5070381;28;20028;-85
2021/01/23 09:50:21;;;;;;;47.80;28.85;;;4.20;91.40;;;;;;5069228;28;20056;-85
2021/01/23 09:52:47;;;;;;;43.08;25.15;;;4.30;91.30;;;;;;5069193;28;20055;-85
2021/01/23 09:55:13;;;;;;;41.55;23.50;;;4.30;91.30;;;;;;5069108;28;20111;-85
2021/01/23 09:57:39;;;;;;;45.20;26.58;;;4.40;91.40;;;;;;5070246;28;20562;-85
2021/01/23 10:00:06;;;;;;;42.28;25.20;;;4.40;91.30;;;;;;5068824;28;20115;-85
2021/01/23 10:02:36;;;;;;;42.53;25.95;;;4.50;91.40;;;;;;5070036;28;20029;-86
2021/01/23 10:05:06;;;;;;;42.33;23.90;;;4.40;90.80;;;;;;5068851;28;20024;-85
2021/01/23 10:07:31;;;;;;;44.95;23.40;;;4.50;91.20;;;;;;5068579;28;20353;-85
2021/01/23 10:09:57;;;;;;;40.47;23.95;;;4.50;91.10;;;;;;5068754;28;20123;-85
2021/01/23 10:12:23;;;;;;;29.67;19.45;;;4.50;91.00;;;;;;5068728;28;20440;-84
2021/01/23 10:14:48;;;;;;;31.38;19.17;;;4.60;91.10;;;;;;5068630;28;20021;-85
2021/01/23 10:17:14;;;;;;;35.13;21.35;;;4.60;91.00;;;;;;5069381;28;20490;-85
2021/01/23 10:19:41;;;;;;;35.40;19.75;;;4.60;90.70;;;;;;5068532;28;20386;-85
2021/01/23 10:22:07;;;;;;;40.95;24.73;;;4.60;90.90;;;;;;5069780;28;20021;-85
2021/01/23 10:24:33;;;;;;;39.50;23.38;;;4.70;90.60;;;;;;5069646;28;20032;-85
2021/01/23 10:26:58;;;;;;;36.50;22.60;;;4.70;90.70;;;;;;5069632;28;20060;-85
2021/01/23 10:29:24;;;;;;;39.33;21.88;;;4.70;90.90;;;;;;5059946;28;20033;-84
2021/01/23 10:31:50;;;;;;;55.70;32.63;;;4.80;91.00;;;;;;5055310;28;20047;-86
2021/01/23 10:34:16;;;;;;;48.88;28.88;;;4.80;90.50;;;;;;5055266;28;20537;-85
2021/01/23 10:36:41;;;;;;;42.65;25.67;;;4.70;90.50;;;;;;5054826;28;20056;-85
2021/01/23 10:39:07;;;;;;;120.97;35.60;;;4.70;90.50;;;;;;5056549;28;20053;-86
2021/01/23 10:41:33;;;;;;;51.10;26.55;;;4.70;90.60;;;;;;5055936;28;20100;-87
2021/01/23 10:43:59;;;;;;;48.72;27.65;;;4.70;90.60;;;;;;5054961;28;20025;-85
2021/01/23 10:46:24;;;;;;;57.25;31.95;;;4.70;90.60;;;;;;5054928;28;20025;-86
2021/01/23 10:48:50;;;;;;;52.10;29.17;;;4.80;90.70;;;;;;5056176;28;20096;-88
2021/01/23 10:51:16;;;;;;;52.17;31.10;;;4.90;90.90;;;;;;5055700;28;20036;-88
2021/01/23 10:53:41;;;;;;;57.65;33.65;;;5.00;90.60;;;;;;5056297;28;20521;-88
2021/01/23 10:56:07;;;;;;;37.00;22.90;;;4.90;90.40;;;;;;5055270;28;20851;-88
2021/01/23 10:58:33;;;;;;;35.95;24.58;;;5.00;90.20;;;;;;5055070;28;20032;-87
2021/01/23 11:00:59;;;;;;;36.60;23.48;;;5.00;90.00;;;;;;5056458;28;20051;-89
2021/01/23 11:03:25;;;;;;;37.90;22.33;;;4.80;90.20;;;;;;5056407;28;20052;-88
2021/01/23 11:05:55;;;;;;;39.42;23.65;;;4.90;90.50;;;;;;5055279;28;20025;-89
2021/01/23 11:08:21;;;;;;;48.33;30.95;;;5.00;90.50;;;;;;5054967;28;20025;-88
2021/01/23 11:10:47;;;;;;;57.47;31.17;;;4.90;89.60;;;;;;5055110;28;20090;-89
2021/01/23 11:13:13;;;;;;;49.42;28.75;;;4.90;90.00;;;;;;5056527;28;20108;-89
2021/01/23 11:15:38;;;;;;;44.45;26.27;;;5.00;90.30;;;;;;5056321;28;20032;-89
2021/01/23 11:18:05;;;;;;;35.20;22.10;;;4.90;90.00;;;;;;5055907;28;20060;-89
2021/01/23 11:20:30;;;;;;;35.15;22.27;;;5.00;90.10;;;;;;5055089;28;20162;-88
2021/01/23 11:22:57;;;;;;;40.42;23.80;;;5.10;90.20;;;;;;5055021;28;20119;-89
2021/01/23 11:25:23;;;;;;;33.35;19.83;;;5.00;90.00;;;;;;5055002;28;20031;-89
2021/01/23 11:27:49;;;;;;;48.92;26.65;;;5.10;90.30;;;;;;5055109;28;20025;-90
2021/01/23 11:30:16;;;;;;;47.17;27.50;;;5.00;90.10;;;;;;5054947;28;20112;-89
2021/01/23 11:32:42;;;;;;;45.65;27.13;;;5.10;90.20;;;;;;5054940;28;20213;-89
2021/01/23 11:35:08;;;;;;;43.83;27.35;;;5.00;89.10;;;;;;5054703;28;20421;-88
2021/01/23 11:37:34;;;;;;;49.08;29.80;;;5.00;90.00;;;;;;5054517;28;20025;-88
2021/01/23 11:40:00;;;;;;;47.10;29.20;;;5.00;90.10;;;;;;5053777;28;20021;-89
2021/01/23 11:42:26;;;;;;;54.35;32.45;;;5.10;90.10;;;;;;5055432;28;20467;-89
2021/01/23 11:44:52;;;;;;;42.60;26.48;;;5.20;90.00;;;;;;5055599;28;20029;-87
2021/01/23 11:47:18;;;;;;;32.90;22.27;;;5.20;90.20;;;;;;5054225;28;20048;-88
2021/01/23 11:49:43;;;;;;;36.30;23.35;;;5.20;90.10;;;;;;5053998;28;20029;-87
2021/01/23 11:52:09;;;;;;;32.35;19.63;;;5.20;90.20;;;;;;5053907;28;20485;-87
2021/01/23 11:54:35;;;;;;;34.20;20.52;;;5.20;90.00;;;;;;5053994;28;20029;-88
2021/01/23 11:57:01;;;;;;;60.38;36.25;;;5.10;89.70;;;;;;5054137;28;20493;-88
2021/01/23 11:59:26;;;;;;;103.30;56.05;;;5.10;90.00;;;;;;5055168;28;20025;-88
2021/01/23 12:01:52;;;;;;;134.75;73.43;;;5.00;89.00;;;;;;5054346;28;20474;-89
2021/01/23 12:04:19;;;;;;;195.85;122.10;;;5.00;90.00;;;;;;5054034;28;20064;-88
2021/01/23 12:06:46;;;;;;;51.03;31.83;;;5.10;90.10;;;;;;5054157;28;20029;-88
2021/01/23 12:09:12;;;;;;;70.45;42.80;;;5.00;90.00;;;;;;5054110;28;20029;-88
2021/01/23 12:11:38;;;;;;;171.15;114.60;;;5.00;90.20;;;;;;5053956;28;20557;-88
2021/01/23 12:14:03;;;;;;;87.03;57.75;;;5.10;90.20;;;;;;5053858;28;20021;-89
2021/01/23 12:16:29;;;;;;;50.88;33.00;;;5.10;90.50;;;;;;5054613;28;20051;-88
2021/01/23 12:18:55;;;;;;;109.22;69.43;;;5.10;90.00;;;;;;5053786;28;20028;-88
2021/01/23 12:21:23;;;;;;;97.22;56.90;;;5.00;90.10;;;;;;5053775;28;20479;-88
2021/01/23 12:23:49;;;;;;;57.95;36.90;;;5.10;90.20;;;;;;5052920;28;20112;-83
2021/01/23 12:26:15;;;;;;;42.58;27.20;;;5.00;89.80;;;;;;5052970;28;20021;-85
2021/01/23 12:28:41;;;;;;;38.28;25.85;;;4.80;90.30;;;;;;5052721;28;20025;-84
2021/01/23 12:31:07;;;;;;;38.83;26.25;;;4.90;90.30;;;;;;5054091;28;20101;-84
2021/01/23 12:33:32;;;;;;;44.60;28.13;;;4.90;90.30;;;;;;5054160;28;20035;-85
2021/01/23 12:35:58;;;;;;;47.72;28.77;;;4.90;90.40;;;;;;5052971;28;20025;-85
2021/01/23 12:38:24;;;;;;;40.95;25.88;;;4.80;90.60;;;;;;5052535;28;20028;-85
2021/01/23 12:40:49;;;;;;;38.03;25.38;;;4.80;90.40;;;;;;5054064;28;20056;-85
2021/01/23 12:43:15;;;;;;;37.53;23.98;;;4.90;90.80;;;;;;5053980;28;20392;-83
2021/01/23 12:45:41;;;;;;;40.63;27.90;;;4.90;90.50;;;;;;5054299;28;20036;-84